createdAt,value
2019-03-28T00:00:53.504Z,9.63
2019-03-28T00:04:57.099Z,12.00
2019-03-28T00:09:00.723Z,14.80
2019-03-28T00:13:04.703Z,13.40
2019-03-28T00:17:08.703Z,12.53
2019-03-28T00:21:12.364Z,14.63
2019-03-28T00:25:23.431Z,14.45
2019-03-28T00:29:27.021Z,13.68
2019-03-28T00:33:30.603Z,14.90
2019-03-28T00:37:34.217Z,14.38
2019-03-28T00:41:37.784Z,14.60
2019-03-28T00:45:44.419Z,14.30
2019-03-28T00:49:46.640Z,15.57
2019-03-28T00:53:50.229Z,14.90
2019-03-28T00:57:53.805Z,14.03
2019-03-28T01:01:57.393Z,12.40
2019-03-28T01:06:00.989Z,14.45
2019-03-28T01:10:06.046Z,13.15
2019-03-28T01:14:09.636Z,16.60
2019-03-28T01:18:13.229Z,14.63
2019-03-28T01:22:16.959Z,11.28
2019-03-28T01:26:20.539Z,14.07
2019-03-28T01:30:24.148Z,12.53
2019-03-28T01:34:27.735Z,13.38
2019-03-28T01:38:31.317Z,13.78
2019-03-28T01:42:34.898Z,14.07
2019-03-28T01:46:38.485Z,12.82
2019-03-28T01:50:42.161Z,15.08
2019-03-28T01:54:45.769Z,14.58
2019-03-28T01:58:49.351Z,13.78
2019-03-28T02:02:52.946Z,14.07
2019-03-28T02:06:56.535Z,13.00
2019-03-28T02:11:00.124Z,14.98
2019-03-28T02:15:05.253Z,14.98
2019-03-28T02:19:09.294Z,14.40
2019-03-28T02:23:12.835Z,14.03
2019-03-28T02:27:24.072Z,13.78
2019-03-28T02:31:23.110Z,12.85
2019-03-28T02:35:26.696Z,14.45
2019-03-28T02:39:30.283Z,13.13
2019-03-28T02:43:33.978Z,14.63
2019-03-28T02:47:37.545Z,15.13
2019-03-28T02:51:41.131Z,15.40
2019-03-28T02:55:45.069Z,15.14
2019-03-28T02:59:48.664Z,13.70
2019-03-28T03:03:52.248Z,13.60
2019-03-28T03:07:55.835Z,12.85
2019-03-28T03:11:59.421Z,13.58
2019-03-28T03:16:03.059Z,15.27
2019-03-28T03:20:08.069Z,16.02
2019-03-28T03:24:11.662Z,17.03
2019-03-28T03:28:15.272Z,14.90
2019-03-28T03:32:18.899Z,15.35
2019-03-28T03:36:22.477Z,16.93
2019-03-28T03:40:26.101Z,16.25
2019-03-28T03:44:29.693Z,16.07
2019-03-28T03:48:33.275Z,17.48
2019-03-28T03:52:36.942Z,15.60
2019-03-28T03:56:40.560Z,16.20
2019-03-28T04:00:44.136Z,15.75
2019-03-28T04:04:47.989Z,16.20
2019-03-28T04:08:51.649Z,15.85
2019-03-28T04:12:55.235Z,15.53
2019-03-28T04:16:58.859Z,15.75
2019-03-28T04:21:02.444Z,14.85
2019-03-28T04:25:06.097Z,14.15
2019-03-28T04:29:09.736Z,15.43
2019-03-28T04:33:13.336Z,14.50
2019-03-28T04:37:16.909Z,15.20
2019-03-28T04:41:20.501Z,16.12
2019-03-28T04:45:24.084Z,14.63
2019-03-28T04:49:27.673Z,16.85
2019-03-28T04:53:31.252Z,17.37
2019-03-28T04:57:34.832Z,17.05
2019-03-28T05:01:38.417Z,15.63
2019-03-28T05:05:42.083Z,15.38
2019-03-28T05:09:45.656Z,17.67
2019-03-28T05:13:49.247Z,16.85
2019-03-28T05:17:52.848Z,17.17
2019-03-28T05:21:56.617Z,17.43
2019-03-28T05:26:00.219Z,17.23
2019-03-28T05:30:08.515Z,15.03
2019-03-28T05:34:12.072Z,15.68
2019-03-28T05:38:15.672Z,13.95
2019-03-28T05:42:19.258Z,15.80
2019-03-28T05:46:22.855Z,14.68
2019-03-28T05:50:26.446Z,17.98
2019-03-28T05:54:30.058Z,16.77
2019-03-28T05:58:33.721Z,16.70
2019-03-28T06:02:37.289Z,16.40
2019-03-28T06:06:40.969Z,15.78
2019-03-28T06:10:44.547Z,16.35
2019-03-28T06:14:48.136Z,15.15
2019-03-28T06:18:51.748Z,15.00
2019-03-28T06:22:55.331Z,16.30
2019-03-28T06:26:58.932Z,16.67
2019-03-28T06:31:02.512Z,17.75
2019-03-28T06:35:06.436Z,18.80
2019-03-28T06:39:10.084Z,16.27
2019-03-28T06:43:13.696Z,17.13
2019-03-28T06:47:17.292Z,16.10
2019-03-28T06:51:22.554Z,15.85
2019-03-28T06:55:26.097Z,15.67
2019-03-28T06:59:37.339Z,18.05
2019-03-28T07:03:34.928Z,12.63
2019-03-28T07:07:38.507Z,18.07
2019-03-28T07:11:42.116Z,16.40
2019-03-28T07:15:45.687Z,15.03
2019-03-28T07:19:49.378Z,13.75
2019-03-28T07:23:53.321Z,15.37
2019-03-28T07:27:56.989Z,13.93
2019-03-28T07:32:00.572Z,12.93
2019-03-28T07:36:04.168Z,16.27
2019-03-28T07:40:08.097Z,14.25
2019-03-28T07:44:11.681Z,14.45
2019-03-28T07:48:15.332Z,16.20
2019-03-28T07:52:20.232Z,14.33
2019-03-28T07:56:23.911Z,16.23
2019-03-28T08:00:27.495Z,15.18
2019-03-28T08:04:31.078Z,15.50
2019-03-28T08:08:39.011Z,15.48
2019-03-28T08:12:40.170Z,14.90
2019-03-28T08:16:44.169Z,15.53
2019-03-28T08:20:47.730Z,16.25
2019-03-28T08:24:51.316Z,14.85
2019-03-28T08:28:54.896Z,16.05
2019-03-28T08:32:58.485Z,17.67
2019-03-28T08:37:02.736Z,15.88
2019-03-28T08:41:07.260Z,15.40
2019-03-28T08:45:11.077Z,15.88
2019-03-28T08:49:14.669Z,17.80
2019-03-28T08:53:18.252Z,14.85
2019-03-28T08:57:21.852Z,16.75
2019-03-28T09:01:26.354Z,13.88
2019-03-28T09:05:29.961Z,16.85
2019-03-28T09:09:33.556Z,14.80
2019-03-28T09:13:37.144Z,13.75
2019-03-28T09:17:40.729Z,15.03
2019-03-28T09:21:44.316Z,16.65
2019-03-28T09:25:47.925Z,15.55
2019-03-28T09:29:51.577Z,12.75
2019-03-28T09:33:55.173Z,13.50
2019-03-28T09:37:58.762Z,14.25
2019-03-28T09:42:02.414Z,13.00
2019-03-28T09:46:06.087Z,14.73
2019-03-28T09:50:09.821Z,12.33
2019-03-28T09:54:13.412Z,12.03
2019-03-28T09:58:17.003Z,11.60
2019-03-28T10:02:20.587Z,12.68
2019-03-28T10:06:24.214Z,12.03
2019-03-28T10:10:27.795Z,10.80
2019-03-28T10:14:31.390Z,11.25
2019-03-28T10:18:34.979Z,12.25
2019-03-28T10:22:38.562Z,11.48
2019-03-28T10:26:42.164Z,11.68
2019-03-28T10:30:45.885Z,11.33
2019-03-28T10:34:49.471Z,11.80
2019-03-28T10:38:53.137Z,12.25
2019-03-28T10:42:56.789Z,11.68
2019-03-28T10:47:00.384Z,10.88
2019-03-28T10:51:03.973Z,12.40
2019-03-28T10:55:07.705Z,12.47
2019-03-28T10:59:22.638Z,13.83
2019-03-28T11:03:16.536Z,12.93
2019-03-28T11:07:20.195Z,13.15
2019-03-28T11:11:23.789Z,13.05
2019-03-28T11:15:27.447Z,12.70
2019-03-28T11:19:31.040Z,15.50
2019-03-28T11:23:34.623Z,13.05
2019-03-28T11:27:38.223Z,12.57
2019-03-28T11:31:46.853Z,14.50
2019-03-28T11:35:47.036Z,12.23
2019-03-28T11:39:50.627Z,13.75
2019-03-28T11:43:54.484Z,12.15
2019-03-28T11:47:58.067Z,12.25
2019-03-28T11:52:01.657Z,13.13
2019-03-28T11:56:05.240Z,11.17
2019-03-28T12:00:13.000Z,10.32
2019-03-28T12:04:16.599Z,9.77
2019-03-28T12:08:20.182Z,11.80
2019-03-28T12:12:23.771Z,11.22
2019-03-28T12:16:27.366Z,11.87
2019-03-28T12:20:30.948Z,10.88
2019-03-28T12:24:34.541Z,11.15
2019-03-28T12:28:38.274Z,11.87
2019-03-28T12:32:41.924Z,12.03
2019-03-28T12:36:45.590Z,11.18
2019-03-28T12:40:49.187Z,13.28
2019-03-28T12:44:57.305Z,11.53
2019-03-28T12:48:58.239Z,10.83
2019-03-28T12:53:01.784Z,10.25
2019-03-28T12:57:05.497Z,11.45
2019-03-28T13:01:09.092Z,9.93
2019-03-28T13:05:12.817Z,10.48
2019-03-28T13:09:16.473Z,10.55
2019-03-28T13:13:20.061Z,11.68
2019-03-28T13:17:23.643Z,9.75
2019-03-28T13:21:27.235Z,9.60
2019-03-28T13:25:30.820Z,9.93
2019-03-28T13:29:34.627Z,8.35
2019-03-28T13:33:38.185Z,8.23
2019-03-28T13:37:41.769Z,7.33
2019-03-28T13:41:46.014Z,9.45
2019-03-28T13:45:49.967Z,9.03
2019-03-28T13:49:53.761Z,9.35
2019-03-28T13:53:57.377Z,8.08
2019-03-28T13:58:01.208Z,7.92
2019-03-28T14:02:06.901Z,9.70
2019-03-28T14:06:10.108Z,8.40
2019-03-28T14:10:13.797Z,8.95
2019-03-28T14:14:17.408Z,7.83
2019-03-28T14:18:20.992Z,9.30
2019-03-28T14:22:24.608Z,9.13
2019-03-28T14:26:28.196Z,7.58
2019-03-28T14:30:31.780Z,9.75
2019-03-28T14:34:35.397Z,10.17
2019-03-28T14:38:38.974Z,8.70
2019-03-28T14:42:42.564Z,9.38
2019-03-28T14:46:46.144Z,8.43
2019-03-28T14:50:49.873Z,7.60
2019-03-28T14:54:53.513Z,8.40
2019-03-28T14:58:58.586Z,8.05
2019-03-28T15:03:02.332Z,7.63
2019-03-28T15:07:07.441Z,7.70
2019-03-28T15:11:11.204Z,8.17
2019-03-28T15:15:15.066Z,8.55
2019-03-28T15:19:18.644Z,8.73
2019-03-28T15:23:22.255Z,8.85
2019-03-28T15:27:25.840Z,7.55
2019-03-28T15:31:29.425Z,8.10
2019-03-28T15:35:33.021Z,7.97
2019-03-28T15:39:36.612Z,7.78
2019-03-28T15:43:40.205Z,8.33
2019-03-28T15:47:43.897Z,7.67
2019-03-28T15:51:47.473Z,5.50
2019-03-28T15:55:51.076Z,5.13
2019-03-28T15:59:54.755Z,3.10
2019-03-28T16:03:58.344Z,3.12
2019-03-28T16:08:01.928Z,3.33
2019-03-28T16:12:05.507Z,3.08
2019-03-28T16:16:09.096Z,2.65
2019-03-28T16:20:13.242Z,2.85
2019-03-28T16:24:16.822Z,2.35
2019-03-28T16:28:20.472Z,3.00
2019-03-28T16:32:24.064Z,3.07
2019-03-28T16:36:27.650Z,3.42
2019-03-28T16:40:31.289Z,3.67
2019-03-28T16:44:34.809Z,3.80
2019-03-28T16:48:38.397Z,3.50
2019-03-28T16:52:41.971Z,4.03
2019-03-28T16:56:45.708Z,4.62
2019-03-28T17:00:49.291Z,5.30
2019-03-28T17:04:52.872Z,4.50
2019-03-28T17:08:57.396Z,5.95
2019-03-28T17:13:00.980Z,6.07
2019-03-28T17:17:04.656Z,5.70
2019-03-28T17:21:08.318Z,4.97
2019-03-28T17:25:11.975Z,5.53
2019-03-28T17:29:15.548Z,5.60
2019-03-28T17:33:19.278Z,5.33
2019-03-28T17:37:22.863Z,5.00
2019-03-28T17:41:26.448Z,6.10
2019-03-28T17:45:30.102Z,5.83
2019-03-28T17:49:33.699Z,5.97
2019-03-28T17:53:37.273Z,6.37
2019-03-28T17:57:40.875Z,6.80
2019-03-28T18:01:44.472Z,6.87
2019-03-28T18:05:57.850Z,7.20
2019-03-28T18:09:53.288Z,7.10
2019-03-28T18:13:57.467Z,8.18
2019-03-28T18:18:01.279Z,7.95
2019-03-28T18:22:07.847Z,9.65
2019-03-28T18:26:11.431Z,8.23
2019-03-28T18:30:16.113Z,8.53
2019-03-28T18:34:20.102Z,8.90
2019-03-28T18:38:23.735Z,7.90
2019-03-28T18:42:27.807Z,8.78
2019-03-28T18:46:31.352Z,9.35
2019-03-28T18:50:34.949Z,8.80
2019-03-28T18:54:38.673Z,9.18
2019-03-28T18:58:42.263Z,8.28
2019-03-28T19:02:46.385Z,7.70
2019-03-28T19:06:50.163Z,8.18
2019-03-28T19:10:54.067Z,8.78
2019-03-28T19:14:57.974Z,8.08
2019-03-28T19:19:02.092Z,8.90
2019-03-28T19:23:07.419Z,9.18
2019-03-28T19:31:14.551Z,9.13
2019-03-28T19:35:18.589Z,8.98
2019-03-28T19:39:34.197Z,9.48
2019-03-28T19:43:38.874Z,9.25
2019-03-28T19:47:43.068Z,8.37
2019-03-28T19:51:47.744Z,8.67
2019-03-28T19:55:51.656Z,9.23
2019-03-28T19:59:58.452Z,8.65
2019-03-28T20:04:00.675Z,8.80
2019-03-28T20:08:14.921Z,8.03
2019-03-28T20:12:09.795Z,8.93
2019-03-28T20:16:13.647Z,8.48
2019-03-28T20:20:17.558Z,8.63
2019-03-28T20:24:24.233Z,9.20
2019-03-28T20:28:28.021Z,9.33
2019-03-28T20:32:31.924Z,8.48
2019-03-28T20:36:38.437Z,8.80
2019-03-28T20:40:43.394Z,8.90
2019-03-28T20:44:46.889Z,9.43
2019-03-28T20:48:50.759Z,10.18
2019-03-28T20:52:54.588Z,9.60
2019-03-28T20:56:58.254Z,10.28
2019-03-28T21:01:02.158Z,9.93
2019-03-28T21:05:07.578Z,11.67
2019-03-28T21:09:11.185Z,11.03
2019-03-28T21:13:14.764Z,11.35
2019-03-28T21:17:18.361Z,13.50
2019-03-28T21:21:22.829Z,13.85
2019-03-28T21:25:29.401Z,13.25
2019-03-28T21:29:33.948Z,13.30
2019-03-28T21:37:46.410Z,14.43
2019-03-28T21:41:50.032Z,15.40
2019-03-28T21:45:53.641Z,15.25
2019-03-28T21:49:57.332Z,16.85
2019-03-28T21:54:00.914Z,16.63
2019-03-28T21:58:05.014Z,17.70
2019-03-28T22:02:08.857Z,18.07
2019-03-28T22:06:12.464Z,19.20
2019-03-28T22:10:17.054Z,17.65
2019-03-28T22:14:26.116Z,19.30
2019-03-28T22:18:29.764Z,19.30
2019-03-28T22:22:33.350Z,19.90
2019-03-28T22:26:36.952Z,20.45
2019-03-28T22:30:40.560Z,20.65
2019-03-28T22:34:44.153Z,19.48
2019-03-28T22:38:47.756Z,21.48
2019-03-28T22:42:51.321Z,21.00
2019-03-28T22:46:54.928Z,21.48
2019-03-28T22:50:58.535Z,19.85
2019-03-28T22:55:02.152Z,19.67
2019-03-28T22:59:05.734Z,20.27
2019-03-28T23:03:09.383Z,19.10
2019-03-28T23:07:12.992Z,19.30
2019-03-28T23:11:16.601Z,19.10
2019-03-28T23:15:21.968Z,17.70
2019-03-28T23:19:25.436Z,16.97
2019-03-28T23:23:29.024Z,16.12
2019-03-28T23:27:33.026Z,17.27
2019-03-28T23:31:36.637Z,17.90
2019-03-28T23:35:40.272Z,16.10
2019-03-28T23:39:44.630Z,17.35
2019-03-28T23:43:48.210Z,15.40
2019-03-28T23:47:51.801Z,18.77
2019-03-28T23:51:55.409Z,18.15
2019-03-28T23:55:59.167Z,18.37
